Time;durP1;ratioP1;P1;durP2;ratioP2;P2;SDS_P1;SDS_P2;PMS_P1;PMS_P2;Temp;Humidity;BMP_temperature;BMP_pressure;BME280_temperature;BME280_humidity;BME280_pressure;Samples;Min_cycle;Max_cycle;Signal;HPM_P1;HPM_P2
2021/01/08 00:02:09;;;;;;;25.63;16.30;;;;;;;;;;5111774;28;20477;-51
2021/01/08 00:04:35;;;;;;;25.97;16.07;;;;;;;;;;5111468;28;20394;-52
2021/01/08 00:07:01;;;;;;;24.35;16.42;;;;;;;;;;5109142;28;20817;-51
2021/01/08 00:09:27;;;;;;;25.57;16.73;;;;;;;;;;5111364;28;20171;-53
2021/01/08 00:11:54;;;;;;;25.17;15.80;;;;;;;;;;5111540;28;20894;-51
2021/01/08 00:14:20;;;;;;;24.88;16.30;;;;;;;;;;5107024;28;20909;-48
2021/01/08 00:16:46;;;;;;;28.20;16.70;;;;;;;;;;5110899;28;20212;-50
2021/01/08 00:19:13;;;;;;;27.17;15.88;;;;;;;;;;5111470;28;20480;-50
2021/01/08 00:21:42;;;;;;;27.10;15.85;;;;;;;;;;5111283;28;20848;-48
2021/01/08 00:24:08;;;;;;;29.23;16.65;;;;;;;;;;5111356;28;20172;-50
2021/01/08 00:26:34;;;;;;;28.65;15.23;;;;;;;;;;5110705;28;20211;-51
2021/01/08 00:29:00;;;;;;;28.90;15.70;;;;;;;;;;5111283;28;20165;-51
2021/01/08 00:31:26;;;;;;;36.00;19.30;;;;;;;;;;5110652;28;20401;-48
2021/01/08 00:33:52;;;;;;;31.05;17.23;;;;;;;;;;5110766;28;20390;-48
2021/01/08 00:36:18;;;;;;;28.63;17.20;;;;;;;;;;5110673;28;20591;-49
2021/01/08 00:38:44;;;;;;;39.87;19.30;;;;;;;;;;5105790;28;20869;-48
2021/01/08 00:41:10;;;;;;;31.98;17.52;;;;;;;;;;5111094;28;20456;-49
2021/01/08 00:43:36;;;;;;;31.20;18.17;;;;;;;;;;5111034;28;20705;-49
2021/01/08 00:46:02;;;;;;;29.50;17.10;;;;;;;;;;5110708;28;21052;-51
2021/01/08 00:48:28;;;;;;;28.55;17.70;;;;;;;;;;5107908;28;20390;-52
2021/01/08 00:51:00;;;;;;;28.40;17.60;;;;;;;;;;5109409;28;20195;-51
2021/01/08 00:53:26;;;;;;;24.25;15.32;;;;;;;;;;5110859;28;20196;-48
2021/01/08 00:55:52;;;;;;;30.42;17.95;;;;;;;;;;5110636;28;20252;-48
2021/01/08 00:58:18;;;;;;;27.90;17.00;;;;;;;;;;5110848;28;20205;-49
2021/01/08 01:00:44;;;;;;;29.58;16.67;;;;;;;;;;5110940;28;20406;-49
2021/01/08 01:03:10;;;;;;;29.80;17.30;;;;;;;;;;5110791;28;20177;-50
2021/01/08 01:05:36;;;;;;;31.33;17.83;;;;;;;;;;5110501;28;20572;-53
2021/01/08 01:08:02;;;;;;;28.50;15.23;;;;;;;;;;5105491;28;20418;-52
2021/01/08 01:10:28;;;;;;;27.50;15.93;;;;;;;;;;5110664;28;20939;-49
2021/01/08 01:12:54;;;;;;;25.97;15.97;;;;;;;;;;5110872;28;20402;-51
2021/01/08 01:15:20;;;;;;;26.97;16.30;;;;;;;;;;5110429;28;20410;-52
2021/01/08 01:17:46;;;;;;;27.83;15.60;;;;;;;;;;5110695;28;20472;-48
2021/01/08 01:20:12;;;;;;;25.27;15.30;;;;;;;;;;5110650;28;20400;-48
2021/01/08 01:22:38;;;;;;;47.63;16.33;;;;;;;;;;5110768;28;20406;-48
2021/01/08 01:25:04;;;;;;;30.00;15.50;;;;;;;;;;5110736;28;20193;-48
2021/01/08 01:27:30;;;;;;;26.77;15.45;;;;;;;;;;5110444;28;20586;-51
2021/01/08 01:29:56;;;;;;;26.70;16.20;;;;;;;;;;5110612;28;20162;-48
2021/01/08 01:32:22;;;;;;;27.90;16.10;;;;;;;;;;5110715;28;20413;-48
2021/01/08 01:34:48;;;;;;;26.97;16.10;;;;;;;;;;5110748;28;20471;-49
2021/01/08 01:37:14;;;;;;;22.80;14.40;;;;;;;;;;5110449;28;20422;-48
2021/01/08 01:39:40;;;;;;;23.13;14.10;;;;;;;;;;5105986;28;20426;-48
2021/01/08 01:42:06;;;;;;;23.40;13.93;;;;;;;;;;5110980;28;20407;-48
2021/01/08 01:44:32;;;;;;;30.83;13.82;;;;;;;;;;5113390;28;20165;-48
2021/01/08 01:46:58;;;;;;;23.63;14.60;;;;;;;;;;5113757;28;20215;-48
2021/01/08 01:49:24;;;;;;;25.67;14.10;;;;;;;;;;5114248;28;20402;-48
2021/01/08 01:51:50;;;;;;;24.10;14.30;;;;;;;;;;5114110;28;20745;-48
2021/01/08 01:54:16;;;;;;;20.37;12.90;;;;;;;;;;5114057;28;20430;-48
2021/01/08 01:56:42;;;;;;;22.63;13.60;;;;;;;;;;5113724;28;20421;-49
2021/01/08 01:59:08;;;;;;;23.70;15.00;;;;;;;;;;5113787;28;20470;-50
2021/01/08 02:01:34;;;;;;;23.13;14.10;;;;;;;;;;5113095;28;20402;-52
2021/01/08 02:04:00;;;;;;;22.17;13.90;;;;;;;;;;5113167;28;20478;-51
2021/01/08 02:06:37;;;;;;;23.02;13.73;;;;;;;;;;5113017;28;21109;-49
2021/01/08 02:09:06;;;;;;;22.50;13.20;;;;;;;;;;5108879;28;20688;-49
2021/01/08 02:11:34;;;;;;;23.42;13.38;;;;;;;;;;5113786;28;20173;-48
2021/01/08 02:14:06;;;;;;;23.67;13.20;;;;;;;;;;5113530;28;20192;-48
2021/01/08 02:16:34;;;;;;;20.52;13.10;;;;;;;;;;5113226;28;20249;-50
2021/01/08 02:19:00;;;;;;;22.88;12.23;;;;;;;;;;5113489;28;20172;-49
2021/01/08 02:21:31;;;;;;;22.63;13.15;;;;;;;;;;5113558;28;20222;-50
2021/01/08 02:24:12;;;;;;;20.98;12.48;;;;;;;;;;5113404;28;20253;-52
2021/01/08 02:26:38;;;;;;;18.75;12.00;;;;;;;;;;5113150;28;20759;-50
2021/01/08 02:29:04;;;;;;;26.00;13.60;;;;;;;;;;5113384;28;20188;-51
2021/01/08 02:31:30;;;;;;;21.38;11.80;;;;;;;;;;5113253;28;20474;-51
2021/01/08 02:33:56;;;;;;;21.23;13.43;;;;;;;;;;5113381;28;20224;-48
2021/01/08 02:36:22;;;;;;;20.85;13.07;;;;;;;;;;5112829;28;20446;-49
2021/01/08 02:38:52;;;;;;;23.95;14.23;;;;;;;;;;5113251;28;20631;-49
2021/01/08 02:41:19;;;;;;;23.67;14.43;;;;;;;;;;5108197;28;20234;-48
2021/01/08 02:43:45;;;;;;;20.08;11.55;;;;;;;;;;5111733;28;20648;-49
2021/01/08 02:46:11;;;;;;;20.13;11.75;;;;;;;;;;5112674;28;20231;-49
2021/01/08 02:48:37;;;;;;;25.30;13.90;;;;;;;;;;5113067;28;20627;-51
2021/01/08 02:51:03;;;;;;;23.55;13.30;;;;;;;;;;5112848;28;20402;-51
2021/01/08 02:53:32;;;;;;;22.02;13.70;;;;;;;;;;5094649;28;20709;-48
2021/01/08 02:55:59;;;;;;;23.40;12.80;;;;;;;;;;5111623;28;20191;-48
2021/01/08 02:58:25;;;;;;;21.15;12.15;;;;;;;;;;5112776;28;20172;-51
2021/01/08 03:00:53;;;;;;;24.48;13.70;;;;;;;;;;5112858;28;20267;-49
2021/01/08 03:03:19;;;;;;;35.47;13.32;;;;;;;;;;5112600;28;20647;-49
2021/01/08 03:05:45;;;;;;;34.42;14.38;;;;;;;;;;5112330;28;20666;-49
2021/01/08 03:08:12;;;;;;;20.67;12.60;;;;;;;;;;5112538;28;20243;-48
2021/01/08 03:10:38;;;;;;;26.63;13.75;;;;;;;;;;5107888;28;20844;-48
2021/01/08 03:13:05;;;;;;;29.60;15.83;;;;;;;;;;5111166;28;20187;-48
2021/01/08 03:15:31;;;;;;;25.52;14.30;;;;;;;;;;5112359;28;20395;-51
2021/01/08 03:17:57;;;;;;;26.02;14.82;;;;;;;;;;5112291;28;20213;-48
2021/01/08 03:20:23;;;;;;;24.67;14.20;;;;;;;;;;5112706;28;20879;-48
2021/01/08 03:22:49;;;;;;;26.37;14.27;;;;;;;;;;5112707;28;20391;-48
2021/01/08 03:25:15;;;;;;;28.63;15.80;;;;;;;;;;5111991;28;20979;-49
2021/01/08 03:27:41;;;;;;;32.10;16.27;;;;;;;;;;5112501;28;20411;-48
2021/01/08 03:30:07;;;;;;;41.37;15.03;;;;;;;;;;5112262;28;20649;-48
2021/01/08 03:32:34;;;;;;;32.70;17.65;;;;;;;;;;5112432;28;20408;-50
2021/01/08 03:35:00;;;;;;;30.63;17.52;;;;;;;;;;5112024;28;20174;-51
2021/01/08 03:37:26;;;;;;;36.22;17.70;;;;;;;;;;5111725;28;20189;-51
2021/01/08 03:39:52;;;;;;;33.60;17.70;;;;;;;;;;5110019;28;20222;-51
2021/01/08 03:42:18;;;;;;;31.25;16.20;;;;;;;;;;5112169;28;20173;-51
2021/01/08 03:44:44;;;;;;;29.57;15.07;;;;;;;;;;5111830;28;20636;-50
2021/01/08 03:47:10;;;;;;;31.00;15.67;;;;;;;;;;5111450;28;20464;-50
2021/01/08 03:49:39;;;;;;;29.67;16.42;;;;;;;;;;5111833;28;20395;-50
2021/01/08 03:52:06;;;;;;;41.75;18.88;;;;;;;;;;5111613;28;20662;-51
2021/01/08 03:54:32;;;;;;;29.27;15.88;;;;;;;;;;5111717;28;20196;-51
2021/01/08 03:56:58;;;;;;;30.90;17.52;;;;;;;;;;5111393;28;20189;-51
2021/01/08 03:59:24;;;;;;;30.00;17.37;;;;;;;;;;5111915;28;20263;-51
2021/01/08 04:01:50;;;;;;;36.03;18.40;;;;;;;;;;5111560;28;20419;-51
2021/01/08 04:04:16;;;;;;;28.73;17.37;;;;;;;;;;5111688;28;20407;-51
2021/01/08 04:06:42;;;;;;;29.80;16.10;;;;;;;;;;5110775;28;20473;-51
2021/01/08 04:09:08;;;;;;;41.73;17.07;;;;;;;;;;5109732;28;20403;-51
2021/01/08 04:11:34;;;;;;;30.38;15.57;;;;;;;;;;5109087;28;20446;-51
2021/01/08 04:14:00;;;;;;;34.67;17.83;;;;;;;;;;5111354;28;20165;-51
2021/01/08 04:16:36;;;;;;;31.17;15.88;;;;;;;;;;5111038;28;20202;-50
2021/01/08 04:19:02;;;;;;;31.38;16.15;;;;;;;;;;5111349;28;20172;-50
2021/01/08 04:21:28;;;;;;;31.55;16.55;;;;;;;;;;5111321;28;20633;-51
2021/01/08 04:23:54;;;;;;;29.33;16.23;;;;;;;;;;5111227;28;20218;-50
2021/01/08 04:26:20;;;;;;;38.72;17.80;;;;;;;;;;5111067;28;20451;-50
2021/01/08 04:28:46;;;;;;;38.85;18.92;;;;;;;;;;5111266;28;20250;-50
2021/01/08 04:31:12;;;;;;;34.67;17.50;;;;;;;;;;5111257;28;20683;-52
2021/01/08 04:33:40;;;;;;;31.42;15.98;;;;;;;;;;5111056;28;20575;-51
2021/01/08 04:36:06;;;;;;;31.85;16.13;;;;;;;;;;5110865;28;20196;-51
2021/01/08 04:38:32;;;;;;;26.48;15.05;;;;;;;;;;5108969;28;20169;-52
2021/01/08 04:40:58;;;;;;;37.93;16.93;;;;;;;;;;5107875;28;20188;-51
2021/01/08 04:43:24;;;;;;;32.97;16.47;;;;;;;;;;5111136;28;20397;-52
2021/01/08 04:45:50;;;;;;;31.20;15.13;;;;;;;;;;5110567;28;20917;-51
2021/01/08 04:48:17;;;;;;;32.03;16.70;;;;;;;;;;5109814;28;20418;-51
2021/01/08 04:50:44;;;;;;;31.05;16.35;;;;;;;;;;5110820;28;20698;-51
2021/01/08 04:53:10;;;;;;;26.27;15.10;;;;;;;;;;5111059;28;20199;-51
2021/01/08 04:55:37;;;;;;;26.73;14.67;;;;;;;;;;5110635;28;20207;-52
2021/01/08 04:58:06;;;;;;;34.30;15.02;;;;;;;;;;5111030;28;20413;-51
2021/01/08 05:00:32;;;;;;;30.30;15.70;;;;;;;;;;5110854;28;20539;-51
2021/01/08 05:02:58;;;;;;;27.27;14.60;;;;;;;;;;5110973;28;20165;-51
2021/01/08 05:05:24;;;;;;;25.95;13.25;;;;;;;;;;5110502;28;20458;-51
2021/01/08 05:07:50;;;;;;;24.70;14.27;;;;;;;;;;5110725;28;20185;-51
2021/01/08 05:10:16;;;;;;;25.47;13.90;;;;;;;;;;5106240;28;20453;-51
2021/01/08 05:12:43;;;;;;;26.98;14.32;;;;;;;;;;5110891;28;20398;-51
2021/01/08 05:15:12;;;;;;;23.10;14.48;;;;;;;;;;5110975;28;20173;-51
2021/01/08 05:17:42;;;;;;;23.92;14.02;;;;;;;;;;5110607;28;20200;-51
2021/01/08 05:20:08;;;;;;;26.85;13.40;;;;;;;;;;5114728;28;20772;-52
2021/01/08 05:22:34;;;;;;;22.88;13.20;;;;;;;;;;5114885;28;20161;-49
2021/01/08 05:25:01;;;;;;;24.75;13.75;;;;;;;;;;5114745;28;20707;-49
2021/01/08 05:27:28;;;;;;;24.27;14.15;;;;;;;;;;5114250;28;20234;-50
2021/01/08 05:29:54;;;;;;;25.67;13.73;;;;;;;;;;5114621;28;20664;-49
2021/01/08 05:32:20;;;;;;;25.13;14.17;;;;;;;;;;5114563;28;20161;-51
2021/01/08 05:34:47;;;;;;;20.35;12.07;;;;;;;;;;5114401;28;20867;-50
2021/01/08 05:37:17;;;;;;;19.13;12.27;;;;;;;;;;5114243;28;20661;-52
2021/01/08 05:39:43;;;;;;;23.92;12.60;;;;;;;;;;5109290;28;20180;-51
2021/01/08 05:42:11;;;;;;;20.97;12.87;;;;;;;;;;5113105;28;20161;-51
2021/01/08 05:44:38;;;;;;;22.42;13.70;;;;;;;;;;5114203;28;20398;-51
2021/01/08 05:47:05;;;;;;;21.52;13.13;;;;;;;;;;5113926;28;20196;-52
2021/01/08 05:49:32;;;;;;;23.02;13.32;;;;;;;;;;5114098;28;20635;-50
2021/01/08 05:51:58;;;;;;;22.73;12.88;;;;;;;;;;5114252;28;20218;-51
2021/01/08 05:54:26;;;;;;;24.53;14.20;;;;;;;;;;5114024;28;20165;-51
2021/01/08 05:56:52;;;;;;;23.67;11.98;;;;;;;;;;5113792;28;20458;-53
2021/01/08 05:59:25;;;;;;;20.85;12.45;;;;;;;;;;5114054;28;20652;-51
2021/01/08 06:01:51;;;;;;;15.10;11.27;;;;;;;;;;5114033;28;20209;-50
2021/01/08 06:04:17;;;;;;;23.17;11.90;;;;;;;;;;5114064;28;20216;-50
2021/01/08 06:06:44;;;;;;;22.58;11.85;;;;;;;;;;5113307;28;20235;-51
2021/01/08 06:09:14;;;;;;;15.88;10.70;;;;;;;;;;5113846;28;20172;-51
2021/01/08 06:11:43;;;;;;;16.20;10.63;;;;;;;;;;5106688;28;20196;-50
2021/01/08 06:14:12;;;;;;;15.20;10.15;;;;;;;;;;5113738;28;20184;-51
2021/01/08 06:16:45;;;;;;;17.48;11.45;;;;;;;;;;5113265;28;20208;-50
2021/01/08 06:19:13;;;;;;;21.58;11.75;;;;;;;;;;5112282;28;20184;-51
2021/01/08 06:21:43;;;;;;;13.65;10.35;;;;;;;;;;5113489;28;20512;-52
2021/01/08 06:24:12;;;;;;;14.02;9.77;;;;;;;;;;5113562;28;20636;-51
2021/01/08 06:26:38;;;;;;;14.65;10.00;;;;;;;;;;5112885;28;20280;-51
2021/01/08 06:29:11;;;;;;;16.25;10.70;;;;;;;;;;5113436;28;20169;-52
2021/01/08 06:31:45;;;;;;;15.55;10.05;;;;;;;;;;5113457;28;20162;-50
2021/01/08 06:34:11;;;;;;;15.15;10.82;;;;;;;;;;5113156;28;20164;-50
2021/01/08 06:36:45;;;;;;;14.47;11.07;;;;;;;;;;5112982;28;20189;-50
2021/01/08 06:39:14;;;;;;;17.65;10.80;;;;;;;;;;5113081;28;21046;-51
2021/01/08 06:41:40;;;;;;;13.60;8.85;;;;;;;;;;5108315;28;20178;-49
2021/01/08 06:44:06;;;;;;;16.13;9.90;;;;;;;;;;5113006;28;20180;-51
2021/01/08 06:46:35;;;;;;;16.70;9.25;;;;;;;;;;5112708;28;20219;-51
2021/01/08 06:49:05;;;;;;;14.65;9.20;;;;;;;;;;5112978;28;20222;-53
2021/01/08 06:51:38;;;;;;;15.10;9.95;;;;;;;;;;5113009;28;20204;-51
2021/01/08 06:54:05;;;;;;;14.70;10.25;;;;;;;;;;5112966;28;20535;-51
2021/01/08 06:56:34;;;;;;;15.27;10.13;;;;;;;;;;5112766;28;20185;-52
2021/01/08 06:59:01;;;;;;;15.38;10.38;;;;;;;;;;5112822;28;20184;-49
2021/01/08 07:01:30;;;;;;;15.05;10.20;;;;;;;;;;5113028;28;20203;-52
2021/01/08 07:03:56;;;;;;;18.02;10.85;;;;;;;;;;5112875;28;20176;-52
2021/01/08 07:06:22;;;;;;;19.02;9.88;;;;;;;;;;5112357;28;20205;-52
2021/01/08 07:08:48;;;;;;;13.85;9.70;;;;;;;;;;5112880;28;20192;-52
2021/01/08 07:11:25;;;;;;;11.65;8.73;;;;;;;;;;5111030;28;20200;-53
2021/01/08 07:13:51;;;;;;;17.90;8.60;;;;;;;;;;5112975;28;20218;-51
2021/01/08 07:16:19;;;;;;;13.75;7.85;;;;;;;;;;5112332;28;20211;-51
2021/01/08 07:18:45;;;;;;;14.05;9.23;;;;;;;;;;5112678;28;20222;-49
2021/01/08 07:21:22;;;;;;;10.90;8.02;;;;;;;;;;5112716;28;20300;-49
2021/01/08 07:23:49;;;;;;;11.52;8.52;;;;;;;;;;5112734;28;20165;-52
2021/01/08 07:26:18;;;;;;;9.52;8.07;;;;;;;;;;5111895;28;20197;-52
2021/01/08 07:28:50;;;;;;;13.48;7.15;;;;;;;;;;5112411;28;20168;-51
2021/01/08 07:31:26;;;;;;;11.77;6.97;;;;;;;;;;5112122;28;20217;-51
2021/01/08 07:33:52;;;;;;;12.25;7.85;;;;;;;;;;5112341;28;20164;-52
2021/01/08 07:36:20;;;;;;;11.70;7.67;;;;;;;;;;5111836;28;20195;-51
2021/01/08 07:38:46;;;;;;;12.18;7.97;;;;;;;;;;5111433;28;20390;-51
2021/01/08 07:41:12;;;;;;;14.90;7.90;;;;;;;;;;5106357;28;20180;-50
2021/01/08 07:43:38;;;;;;;13.37;8.33;;;;;;;;;;5111109;28;20555;-51
2021/01/08 07:46:04;;;;;;;14.93;9.30;;;;;;;;;;5111174;28;20551;-50
2021/01/08 07:48:40;;;;;;;11.05;8.55;;;;;;;;;;5111056;28;20398;-51
2021/01/08 07:51:07;;;;;;;11.55;7.50;;;;;;;;;;5111489;28;20172;-50
2021/01/08 07:53:45;;;;;;;13.00;7.47;;;;;;;;;;5110938;28;20189;-52
2021/01/08 07:56:27;;;;;;;10.93;7.82;;;;;;;;;;5110868;28;20185;-51
2021/01/08 07:59:05;;;;;;;12.02;8.18;;;;;;;;;;5111221;28;20221;-51
2021/01/08 08:01:32;;;;;;;13.40;8.45;;;;;;;;;;5111028;28;20176;-51
2021/01/08 08:04:05;;;;;;;15.30;10.18;;;;;;;;;;5110966;28;20173;-50
2021/01/08 08:06:32;;;;;;;14.35;8.45;;;;;;;;;;5110369;28;20610;-51
2021/01/08 08:08:59;;;;;;;13.95;8.60;;;;;;;;;;5111023;28;20546;-49
2021/01/08 08:11:28;;;;;;;10.88;8.00;;;;;;;;;;5108942;28;20184;-51
2021/01/08 08:13:54;;;;;;;12.13;8.63;;;;;;;;;;5110985;28;20162;-52
2021/01/08 08:16:30;;;;;;;18.52;8.27;;;;;;;;;;5110109;28;20201;-50
2021/01/08 08:18:56;;;;;;;13.27;9.18;;;;;;;;;;5102454;28;20186;-51
2021/01/08 08:21:22;;;;;;;17.27;9.10;;;;;;;;;;5082050;28;20185;-51
2021/01/08 08:23:52;;;;;;;13.73;9.20;;;;;;;;;;5091020;28;20411;-51
2021/01/08 08:26:18;;;;;;;15.73;10.35;;;;;;;;;;5090488;28;20212;-50
2021/01/08 08:28:44;;;;;;;17.05;11.20;;;;;;;;;;5090887;28;20166;-49
2021/01/08 08:31:14;;;;;;;12.98;10.35;;;;;;;;;;5090721;28;20166;-50
2021/01/08 08:33:44;;;;;;;14.20;10.18;;;;;;;;;;5090933;28;20261;-50
2021/01/08 08:36:10;;;;;;;16.70;11.55;;;;;;;;;;5090435;28;20240;-51
2021/01/08 08:38:36;;;;;;;21.42;11.65;;;;;;;;;;5090498;28;20191;-51
2021/01/08 08:41:15;;;;;;;14.40;11.07;;;;;;;;;;5096287;28;20205;-53
2021/01/08 08:43:41;;;;;;;17.48;11.35;;;;;;;;;;5110804;28;20766;-50
2021/01/08 08:46:06;;;;;;;18.20;12.80;;;;;;;;;;5110586;28;20207;-51
2021/01/08 08:48:32;;;;;;;17.53;12.43;;;;;;;;;;5105976;28;21131;-50
2021/01/08 08:50:59;;;;;;;19.48;11.70;;;;;;;;;;5111005;28;20390;-51
2021/01/08 08:53:25;;;;;;;19.52;11.50;;;;;;;;;;5111820;28;20200;-52
2021/01/08 08:55:51;;;;;;;19.20;12.43;;;;;;;;;;5114884;28;20781;-51
2021/01/08 08:58:17;;;;;;;16.35;11.48;;;;;;;;;;5115059;28;20742;-51
2021/01/08 09:00:44;;;;;;;13.60;11.57;;;;;;;;;;5115160;28;20169;-51
2021/01/08 09:03:16;;;;;;;15.40;11.73;;;;;;;;;;5110090;28;20488;-52
2021/01/08 09:05:42;;;;;;;18.20;12.30;;;;;;;;;;5114720;28;20225;-53
2021/01/08 09:08:27;;;;;;;13.60;11.65;;;;;;;;;;5114973;28;20169;-51
2021/01/08 09:11:20;;;;;;;15.68;11.38;;;;;;;;;;5113626;28;20191;-50
2021/01/08 09:13:48;;;;;;;17.83;12.35;;;;;;;;;;5083760;28;20178;-51
2021/01/08 09:16:17;;;;;;;19.00;12.38;;;;;;;;;;5095964;28;20271;-53
2021/01/08 09:18:44;;;;;;;18.65;11.60;;;;;;;;;;5114860;28;20176;-52
2021/01/08 09:21:20;;;;;;;19.83;12.63;;;;;;;;;;5114690;28;20168;-51
2021/01/08 09:23:47;;;;;;;15.82;10.80;;;;;;;;;;5114710;28;20172;-50
2021/01/08 09:26:13;;;;;;;11.88;9.43;;;;;;;;;;5114414;28;20208;-51
2021/01/08 09:28:40;;;;;;;13.90;10.02;;;;;;;;;;5114679;28;20190;-53
2021/01/08 09:31:06;;;;;;;10.82;9.02;;;;;;;;;;5114523;28;20174;-51
2021/01/08 09:33:32;;;;;;;14.50;10.53;;;;;;;;;;5110778;28;20170;-51
2021/01/08 09:35:58;;;;;;;13.70;10.13;;;;;;;;;;5114106;28;20419;-50
2021/01/08 09:38:24;;;;;;;15.70;9.70;;;;;;;;;;5114888;28;20167;-51
2021/01/08 09:40:51;;;;;;;12.93;8.82;;;;;;;;;;5114761;28;20407;-50
2021/01/08 09:43:18;;;;;;;10.57;8.55;;;;;;;;;;5114439;28;20170;-50
2021/01/08 09:45:44;;;;;;;9.75;7.32;;;;;;;;;;5114132;28;20199;-51
2021/01/08 09:48:20;;;;;;;9.18;7.10;;;;;;;;;;5114269;28;20157;-50
2021/01/08 09:50:46;;;;;;;10.27;7.18;;;;;;;;;;5114306;28;20185;-50
2021/01/08 09:53:12;;;;;;;10.20;6.80;;;;;;;;;;5114169;28;20171;-50
2021/01/08 09:55:38;;;;;;;8.73;6.10;;;;;;;;;;5113868;28;20184;-50
2021/01/08 09:58:04;;;;;;;9.30;6.60;;;;;;;;;;5114041;28;20248;-51
2021/01/08 10:00:37;;;;;;;9.57;6.70;;;;;;;;;;5114138;28;20454;-51
2021/01/08 10:03:04;;;;;;;8.27;6.07;;;;;;;;;;5110702;28;20165;-50
2021/01/08 10:05:31;;;;;;;10.50;7.18;;;;;;;;;;5113225;28;20206;-51
2021/01/08 10:07:58;;;;;;;7.50;5.70;;;;;;;;;;5113983;28;20692;-50
2021/01/08 10:10:27;;;;;;;10.98;6.63;;;;;;;;;;5113701;28;20192;-50
2021/01/08 10:12:54;;;;;;;10.13;7.07;;;;;;;;;;5098799;28;20204;-50
2021/01/08 10:15:20;;;;;;;6.90;6.13;;;;;;;;;;5092823;28;20179;-50
2021/01/08 10:17:50;;;;;;;9.82;6.85;;;;;;;;;;5093436;28;20692;-50
2021/01/08 10:20:17;;;;;;;9.65;6.20;;;;;;;;;;5092993;28;20186;-51
2021/01/08 10:22:50;;;;;;;8.40;6.90;;;;;;;;;;5093195;28;20538;-50
2021/01/08 10:25:29;;;;;;;7.25;6.00;;;;;;;;;;5092785;28;20240;-50
2021/01/08 10:28:12;;;;;;;8.85;6.38;;;;;;;;;;5092977;28;20185;-50
2021/01/08 10:30:38;;;;;;;8.73;6.18;;;;;;;;;;5092845;28;20657;-50
2021/01/08 10:33:04;;;;;;;9.88;6.30;;;;;;;;;;5091826;28;20166;-50
2021/01/08 10:35:30;;;;;;;8.05;6.47;;;;;;;;;;5113079;28;20180;-50
2021/01/08 10:37:56;;;;;;;10.40;5.90;;;;;;;;;;5113085;28;20186;-50
2021/01/08 10:40:22;;;;;;;9.57;6.43;;;;;;;;;;5113227;28;20404;-50
2021/01/08 10:42:48;;;;;;;8.53;7.03;;;;;;;;;;5112852;28;20403;-51
2021/01/08 10:45:14;;;;;;;9.70;6.93;;;;;;;;;;5112844;28;20402;-50
2021/01/08 10:47:40;;;;;;;8.57;6.80;;;;;;;;;;5112758;28;20419;-50
2021/01/08 10:50:06;;;;;;;8.70;6.40;;;;;;;;;;5113067;28;20165;-50
2021/01/08 10:52:32;;;;;;;11.68;7.07;;;;;;;;;;5112649;28;20826;-50
2021/01/08 10:54:58;;;;;;;10.63;7.45;;;;;;;;;;5112974;28;20732;-50
2021/01/08 10:57:24;;;;;;;7.97;7.18;;;;;;;;;;5112540;28;20297;-50
2021/01/08 10:59:50;;;;;;;11.77;7.43;;;;;;;;;;5112673;28;20669;-50
2021/01/08 11:02:16;;;;;;;12.37;7.63;;;;;;;;;;5112882;28;20922;-51
2021/01/08 11:04:42;;;;;;;9.00;7.00;;;;;;;;;;5108443;28;20909;-50
2021/01/08 11:07:09;;;;;;;11.32;7.57;;;;;;;;;;5112339;28;20457;-51
2021/01/08 11:09:35;;;;;;;11.55;7.15;;;;;;;;;;5112524;28;20175;-50
2021/01/08 11:12:01;;;;;;;9.87;7.83;;;;;;;;;;5112565;28;20171;-50
2021/01/08 11:14:27;;;;;;;9.65;7.75;;;;;;;;;;5112487;28;20407;-50
2021/01/08 11:16:53;;;;;;;10.10;7.78;;;;;;;;;;5111293;28;20547;-51
2021/01/08 11:19:19;;;;;;;12.47;7.97;;;;;;;;;;5112296;28;20176;-51
2021/01/08 11:21:46;;;;;;;10.93;7.90;;;;;;;;;;5112447;28;20896;-51
2021/01/08 11:24:12;;;;;;;9.68;7.13;;;;;;;;;;5112474;28;20396;-51
2021/01/08 11:26:38;;;;;;;15.68;8.52;;;;;;;;;;5095305;28;20202;-50
2021/01/08 11:29:04;;;;;;;12.70;8.02;;;;;;;;;;5084627;28;20400;-51
2021/01/08 11:31:34;;;;;;;11.00;7.78;;;;;;;;;;5091893;28;20160;-50
2021/01/08 11:34:00;;;;;;;11.88;7.40;;;;;;;;;;5091940;28;20170;-51
2021/01/08 11:36:26;;;;;;;9.75;6.78;;;;;;;;;;5111804;28;20217;-51
2021/01/08 11:38:52;;;;;;;11.40;8.07;;;;;;;;;;5112252;28;20171;-51
2021/01/08 11:41:21;;;;;;;10.23;7.03;;;;;;;;;;5111864;28;20906;-51
2021/01/08 11:43:47;;;;;;;11.73;7.05;;;;;;;;;;5112188;28;20444;-51
2021/01/08 11:46:20;;;;;;;9.70;7.03;;;;;;;;;;5111723;28;20275;-52
2021/01/08 11:48:47;;;;;;;12.02;6.80;;;;;;;;;;5111864;28;20166;-51
2021/01/08 11:51:15;;;;;;;12.13;6.80;;;;;;;;;;5111936;28;20263;-51
2021/01/08 11:53:42;;;;;;;10.35;7.40;;;;;;;;;;5111546;28;20170;-51
2021/01/08 11:56:09;;;;;;;10.80;7.53;;;;;;;;;;5111379;28;20380;-51
2021/01/08 11:58:35;;;;;;;9.55;7.28;;;;;;;;;;5111748;28;20179;-51
2021/01/08 12:01:01;;;;;;;14.38;8.13;;;;;;;;;;5111710;28;20226;-51
2021/01/08 12:03:27;;;;;;;9.63;6.80;;;;;;;;;;5111540;28;20179;-52
2021/01/08 12:05:53;;;;;;;16.23;7.28;;;;;;;;;;5109451;28;20450;-51
2021/01/08 12:08:19;;;;;;;12.85;8.57;;;;;;;;;;5110353;28;20177;-51
2021/01/08 12:10:45;;;;;;;11.77;8.70;;;;;;;;;;5111461;28;20533;-51
2021/01/08 12:13:11;;;;;;;12.20;7.80;;;;;;;;;;5111726;28;20402;-51
2021/01/08 12:15:38;;;;;;;12.97;8.50;;;;;;;;;;5111048;28;20171;-51
2021/01/08 12:18:03;;;;;;;8.82;7.22;;;;;;;;;;5111396;28;20417;-51
2021/01/08 12:20:29;;;;;;;10.07;7.60;;;;;;;;;;5111296;28;20183;-52
2021/01/08 12:22:55;;;;;;;11.40;7.53;;;;;;;;;;5111316;28;20401;-51
2021/01/08 12:25:21;;;;;;;9.73;7.30;;;;;;;;;;5110950;28;20447;-51
2021/01/08 12:27:47;;;;;;;11.63;8.40;;;;;;;;;;5110984;28;20419;-51
2021/01/08 12:30:14;;;;;;;10.10;7.22;;;;;;;;;;5111394;28;20408;-51
2021/01/08 12:32:40;;;;;;;11.30;7.63;;;;;;;;;;5110143;28;20157;-50
2021/01/08 12:35:06;;;;;;;8.88;6.85;;;;;;;;;;5108272;28;20167;-53
2021/01/08 12:37:32;;;;;;;10.10;7.40;;;;;;;;;;5109046;28;20288;-50
2021/01/08 12:39:58;;;;;;;13.83;8.33;;;;;;;;;;5110295;28;20257;-51
2021/01/08 12:42:24;;;;;;;10.90;7.10;;;;;;;;;;5110179;28;20399;-51
2021/01/08 12:44:50;;;;;;;8.77;7.22;;;;;;;;;;5111047;28;20757;-50
2021/01/08 12:47:16;;;;;;;9.23;7.15;;;;;;;;;;5110776;28;20308;-51
2021/01/08 12:49:42;;;;;;;10.00;7.90;;;;;;;;;;5110576;28;20250;-51
2021/01/08 12:52:09;;;;;;;9.60;6.87;;;;;;;;;;5110902;28;20413;-51
2021/01/08 12:54:35;;;;;;;14.07;7.88;;;;;;;;;;5110912;28;20410;-51
2021/01/08 12:57:01;;;;;;;9.60;7.60;;;;;;;;;;5110703;28;20191;-50
2021/01/08 12:59:27;;;;;;;15.70;8.90;;;;;;;;;;5110526;28;20402;-51
2021/01/08 13:01:59;;;;;;;12.73;8.10;;;;;;;;;;5105216;28;20407;-51
2021/01/08 13:04:25;;;;;;;11.18;7.75;;;;;;;;;;5089935;28;20432;-50
2021/01/08 13:06:51;;;;;;;8.60;6.72;;;;;;;;;;5109235;28;20211;-51
2021/01/08 13:09:17;;;;;;;12.30;7.55;;;;;;;;;;5110496;28;20211;-51
2021/01/08 13:11:43;;;;;;;11.43;7.03;;;;;;;;;;5091830;28;20224;-50
2021/01/08 13:14:09;;;;;;;10.27;7.37;;;;;;;;;;5110611;28;20539;-50
2021/01/08 13:16:35;;;;;;;12.52;7.72;;;;;;;;;;5109165;28;20458;-50
2021/01/08 13:19:01;;;;;;;6.77;5.43;;;;;;;;;;5109586;28;20170;-51
2021/01/08 13:21:27;;;;;;;7.40;6.38;;;;;;;;;;5110139;28;20413;-51
2021/01/08 13:23:53;;;;;;;6.40;5.30;;;;;;;;;;5110713;28;20677;-51
2021/01/08 13:26:23;;;;;;;6.37;5.70;;;;;;;;;;5110320;28;20544;-51
2021/01/08 13:28:49;;;;;;;8.50;6.10;;;;;;;;;;5110224;28;20404;-51
2021/01/08 13:31:20;;;;;;;10.40;6.43;;;;;;;;;;5110887;28;20170;-50
2021/01/08 13:33:46;;;;;;;9.75;6.60;;;;;;;;;;5110545;28;20399;-50
2021/01/08 13:36:12;;;;;;;7.60;5.60;;;;;;;;;;5105192;28;20205;-49
2021/01/08 13:38:38;;;;;;;7.10;5.87;;;;;;;;;;5110698;28;20401;-51
2021/01/08 13:41:04;;;;;;;7.73;6.23;;;;;;;;;;5113971;28;20435;-49
2021/01/08 13:43:33;;;;;;;6.90;5.70;;;;;;;;;;5114724;28;20396;-51
2021/01/08 13:45:59;;;;;;;8.25;5.72;;;;;;;;;;5114004;28;20460;-51
2021/01/08 13:48:25;;;;;;;7.03;6.33;;;;;;;;;;5114356;28;20222;-51
2021/01/08 13:50:51;;;;;;;7.60;5.33;;;;;;;;;;5114249;28;20403;-51
2021/01/08 13:53:17;;;;;;;6.40;5.30;;;;;;;;;;5111682;28;20443;-51
2021/01/08 13:55:43;;;;;;;7.20;6.30;;;;;;;;;;5092931;28;20405;-52
2021/01/08 13:58:09;;;;;;;9.13;6.30;;;;;;;;;;5093792;28;20408;-50
2021/01/08 14:00:34;;;;;;;7.88;6.22;;;;;;;;;;5093565;28;20404;-50
2021/01/08 14:03:00;;;;;;;8.80;6.33;;;;;;;;;;5093356;28;20178;-51
2021/01/08 14:05:26;;;;;;;8.90;6.70;;;;;;;;;;5092983;28;20456;-51
2021/01/08 14:07:52;;;;;;;7.28;5.30;;;;;;;;;;5113684;28;20994;-50
2021/01/08 14:10:18;;;;;;;6.23;5.53;;;;;;;;;;5113483;28;20243;-51
2021/01/08 14:12:44;;;;;;;8.00;5.53;;;;;;;;;;5113834;28;20895;-51
2021/01/08 14:15:11;;;;;;;8.60;5.67;;;;;;;;;;5113482;28;20410;-51
2021/01/08 14:17:39;;;;;;;7.00;5.60;;;;;;;;;;5113320;28;20444;-50
2021/01/08 14:20:06;;;;;;;8.25;5.82;;;;;;;;;;5113579;28;20177;-51
2021/01/08 14:22:31;;;;;;;9.23;6.05;;;;;;;;;;5113518;28;20162;-51
2021/01/08 14:24:58;;;;;;;8.30;5.40;;;;;;;;;;5113570;28;20287;-51
2021/01/08 14:27:23;;;;;;;7.90;6.05;;;;;;;;;;5112747;28;20472;-51